sensor_id;sensor_type;location;lat;lon;timestamp;temperature;humidity
14142;DHT22;7151;52.246;4.820;2023-06-19T00:01:43;27.10;47.10
14142;DHT22;7151;52.246;4.820;2023-06-19T00:04:10;27.10;47.10
14142;DHT22;7151;52.246;4.820;2023-06-19T00:06:36;27.10;47.00
14142;DHT22;7151;52.246;4.820;2023-06-19T00:09:02;27.10;47.00
14142;DHT22;7151;52.246;4.820;2023-06-19T00:11:27;27.10;46.90
14142;DHT22;7151;52.246;4.820;2023-06-19T00:13:53;27.00;46.80
14142;DHT22;7151;52.246;4.820;2023-06-19T00:16:20;27.10;46.90
14142;DHT22;7151;52.246;4.820;2023-06-19T00:18:46;27.00;46.90
14142;DHT22;7151;52.246;4.820;2023-06-19T00:21:12;27.00;47.00
14142;DHT22;7151;52.246;4.820;2023-06-19T00:23:37;27.00;47.20
14142;DHT22;7151;52.246;4.820;2023-06-19T00:26:03;27.00;47.40
14142;DHT22;7151;52.246;4.820;2023-06-19T00:28:30;26.90;47.60
14142;DHT22;7151;52.246;4.820;2023-06-19T00:30:56;26.90;47.90
14142;DHT22;7151;52.246;4.820;2023-06-19T00:33:22;26.90;48.10
14142;DHT22;7151;52.246;4.820;2023-06-19T00:35:51;26.90;48.30
14142;DHT22;7151;52.246;4.820;2023-06-19T00:38:16;26.90;48.50
14142;DHT22;7151;52.246;4.820;2023-06-19T00:40:42;26.80;48.80
14142;DHT22;7151;52.246;4.820;2023-06-19T00:43:08;26.80;48.90
14142;DHT22;7151;52.246;4.820;2023-06-19T00:45:33;26.80;49.10
14142;DHT22;7151;52.246;4.820;2023-06-19T00:47:59;26.70;49.30
14142;DHT22;7151;52.246;4.820;2023-06-19T00:50:28;26.70;49.50
14142;DHT22;7151;52.246;4.820;2023-06-19T00:52:54;26.70;49.70
14142;DHT22;7151;52.246;4.820;2023-06-19T00:55:21;26.70;49.90
14142;DHT22;7151;52.246;4.820;2023-06-19T00:57:48;26.70;50.20
14142;DHT22;7151;52.246;4.820;2023-06-19T01:00:14;26.60;50.40
14142;DHT22;7151;52.246;4.820;2023-06-19T01:02:40;26.60;50.60
14142;DHT22;7151;52.246;4.820;2023-06-19T01:05:06;26.50;50.80
14142;DHT22;7151;52.246;4.820;2023-06-19T01:07:58;26.50;51.00
14142;DHT22;7151;52.246;4.820;2023-06-19T01:10:27;26.50;51.50
14142;DHT22;7151;52.246;4.820;2023-06-19T01:13:02;26.50;51.40
14142;DHT22;7151;52.246;4.820;2023-06-19T01:15:28;26.40;51.70
14142;DHT22;7151;52.246;4.820;2023-06-19T01:17:56;26.40;51.70
14142;DHT22;7151;52.246;4.820;2023-06-19T01:20:23;26.30;51.90
14142;DHT22;7151;52.246;4.820;2023-06-19T01:22:49;26.30;52.10
14142;DHT22;7151;52.246;4.820;2023-06-19T01:25:14;26.20;52.20
14142;DHT22;7151;52.246;4.820;2023-06-19T01:27:41;26.20;52.40
14142;DHT22;7151;52.246;4.820;2023-06-19T01:30:11;26.20;52.60
14142;DHT22;7151;52.246;4.820;2023-06-19T01:32:58;26.10;52.80
14142;DHT22;7151;52.246;4.820;2023-06-19T01:35:28;26.10;53.20
14142;DHT22;7151;52.246;4.820;2023-06-19T01:37:55;26.00;53.00
14142;DHT22;7151;52.246;4.820;2023-06-19T01:40:23;26.00;53.20
14142;DHT22;7151;52.246;4.820;2023-06-19T01:42:53;25.90;53.50
14142;DHT22;7151;52.246;4.820;2023-06-19T01:45:19;25.90;53.70
14142;DHT22;7151;52.246;4.820;2023-06-19T01:47:44;25.90;54.00
14142;DHT22;7151;52.246;4.820;2023-06-19T01:50:10;25.80;54.00
14142;DHT22;7151;52.246;4.820;2023-06-19T01:52:37;25.80;54.30
14142;DHT22;7151;52.246;4.820;2023-06-19T01:55:03;25.80;54.50
14142;DHT22;7151;52.246;4.820;2023-06-19T01:57:29;25.80;54.90
14142;DHT22;7151;52.246;4.820;2023-06-19T01:59:54;25.70;55.00
14142;DHT22;7151;52.246;4.820;2023-06-19T02:02:20;25.70;55.20
14142;DHT22;7151;52.246;4.820;2023-06-19T02:04:46;25.60;55.40
14142;DHT22;7151;52.246;4.820;2023-06-19T02:07:11;25.60;55.50
14142;DHT22;7151;52.246;4.820;2023-06-19T02:09:38;25.50;55.80
14142;DHT22;7151;52.246;4.820;2023-06-19T02:12:04;25.50;56.00
14142;DHT22;7151;52.246;4.820;2023-06-19T02:14:30;25.50;56.20
14142;DHT22;7151;52.246;4.820;2023-06-19T02:16:55;25.40;56.30
14142;DHT22;7151;52.246;4.820;2023-06-19T02:19:21;25.40;56.40
14142;DHT22;7151;52.246;4.820;2023-06-19T02:21:46;25.40;56.70
14142;DHT22;7151;52.246;4.820;2023-06-19T02:24:12;25.40;56.70
14142;DHT22;7151;52.246;4.820;2023-06-19T02:26:38;25.30;56.80
14142;DHT22;7151;52.246;4.820;2023-06-19T02:29:03;25.30;56.90
14142;DHT22;7151;52.246;4.820;2023-06-19T02:31:29;25.30;57.10
14142;DHT22;7151;52.246;4.820;2023-06-19T02:33:54;25.30;57.20
14142;DHT22;7151;52.246;4.820;2023-06-19T02:36:20;25.30;57.40
14142;DHT22;7151;52.246;4.820;2023-06-19T02:38:49;25.30;57.50
14142;DHT22;7151;52.246;4.820;2023-06-19T02:41:15;25.20;57.70
14142;DHT22;7151;52.246;4.820;2023-06-19T02:43:42;25.20;57.80
14142;DHT22;7151;52.246;4.820;2023-06-19T02:46:08;25.30;58.00
14142;DHT22;7151;52.246;4.820;2023-06-19T02:48:34;25.30;58.00
14142;DHT22;7151;52.246;4.820;2023-06-19T02:51:00;25.30;58.20
14142;DHT22;7151;52.246;4.820;2023-06-19T02:53:25;25.30;58.20
14142;DHT22;7151;52.246;4.820;2023-06-19T02:55:51;25.30;58.30
14142;DHT22;7151;52.246;4.820;2023-06-19T02:58:16;25.30;58.40
14142;DHT22;7151;52.246;4.820;2023-06-19T03:00:42;25.20;58.40
14142;DHT22;7151;52.246;4.820;2023-06-19T03:03:08;25.20;58.50
14142;DHT22;7151;52.246;4.820;2023-06-19T03:05:33;25.20;58.80
14142;DHT22;7151;52.246;4.820;2023-06-19T03:07:59;25.20;58.80
14142;DHT22;7151;52.246;4.820;2023-06-19T03:10:25;25.20;58.90
14142;DHT22;7151;52.246;4.820;2023-06-19T03:12:50;25.10;59.00
14142;DHT22;7151;52.246;4.820;2023-06-19T03:15:16;25.20;59.20
14142;DHT22;7151;52.246;4.820;2023-06-19T03:17:41;25.20;59.40
14142;DHT22;7151;52.246;4.820;2023-06-19T03:20:07;25.20;59.60
14142;DHT22;7151;52.246;4.820;2023-06-19T03:22:38;25.20;59.80
14142;DHT22;7151;52.246;4.820;2023-06-19T03:25:04;25.20;59.90
14142;DHT22;7151;52.246;4.820;2023-06-19T03:27:31;25.20;60.20
14142;DHT22;7151;52.246;4.820;2023-06-19T03:29:57;25.20;60.30
14142;DHT22;7151;52.246;4.820;2023-06-19T03:32:22;25.10;60.60
14142;DHT22;7151;52.246;4.820;2023-06-19T03:34:48;25.10;60.90
14142;DHT22;7151;52.246;4.820;2023-06-19T03:37:14;25.10;61.20
14142;DHT22;7151;52.246;4.820;2023-06-19T03:39:39;25.10;61.60
14142;DHT22;7151;52.246;4.820;2023-06-19T03:42:05;25.10;62.00
14142;DHT22;7151;52.246;4.820;2023-06-19T03:44:31;25.10;62.40
14142;DHT22;7151;52.246;4.820;2023-06-19T03:46:56;25.00;62.70
14142;DHT22;7151;52.246;4.820;2023-06-19T03:49:22;25.00;62.90
14142;DHT22;7151;52.246;4.820;2023-06-19T03:51:47;25.00;63.20
14142;DHT22;7151;52.246;4.820;2023-06-19T03:54:13;25.00;63.40
14142;DHT22;7151;52.246;4.820;2023-06-19T03:56:38;25.00;63.80
14142;DHT22;7151;52.246;4.820;2023-06-19T03:59:04;25.00;64.00
14142;DHT22;7151;52.246;4.820;2023-06-19T04:01:29;24.90;64.20
14142;DHT22;7151;52.246;4.820;2023-06-19T04:03:55;24.90;64.40
14142;DHT22;7151;52.246;4.820;2023-06-19T04:06:20;24.90;64.50
14142;DHT22;7151;52.246;4.820;2023-06-19T04:08:46;24.90;64.80
14142;DHT22;7151;52.246;4.820;2023-06-19T04:11:12;24.80;64.80
14142;DHT22;7151;52.246;4.820;2023-06-19T04:13:37;24.90;65.00
14142;DHT22;7151;52.246;4.820;2023-06-19T04:16:03;24.80;65.10
14142;DHT22;7151;52.246;4.820;2023-06-19T04:18:28;24.80;65.20
14142;DHT22;7151;52.246;4.820;2023-06-19T04:20:54;24.80;65.20
14142;DHT22;7151;52.246;4.820;2023-06-19T04:23:19;24.80;65.30
14142;DHT22;7151;52.246;4.820;2023-06-19T04:25:45;24.80;65.30
14142;DHT22;7151;52.246;4.820;2023-06-19T04:28:11;24.70;65.30
14142;DHT22;7151;52.246;4.820;2023-06-19T04:30:36;24.70;65.30
14142;DHT22;7151;52.246;4.820;2023-06-19T04:33:04;24.70;65.40
14142;DHT22;7151;52.246;4.820;2023-06-19T04:35:31;24.60;65.40
14142;DHT22;7151;52.246;4.820;2023-06-19T04:37:57;24.60;65.50
14142;DHT22;7151;52.246;4.820;2023-06-19T04:40:26;24.60;65.60
14142;DHT22;7151;52.246;4.820;2023-06-19T04:42:52;24.60;65.80
14142;DHT22;7151;52.246;4.820;2023-06-19T04:45:19;24.60;65.90
14142;DHT22;7151;52.246;4.820;2023-06-19T04:47:45;24.50;65.90
14142;DHT22;7151;52.246;4.820;2023-06-19T04:50:10;24.50;66.10
14142;DHT22;7151;52.246;4.820;2023-06-19T04:52:36;24.50;66.20
14142;DHT22;7151;52.246;4.820;2023-06-19T04:55:05;24.50;66.20
14142;DHT22;7151;52.246;4.820;2023-06-19T04:57:30;24.50;66.30
14142;DHT22;7151;52.246;4.820;2023-06-19T04:59:56;24.40;66.40
14142;DHT22;7151;52.246;4.820;2023-06-19T05:02:21;24.40;66.50
14142;DHT22;7151;52.246;4.820;2023-06-19T05:04:49;24.40;66.50
14142;DHT22;7151;52.246;4.820;2023-06-19T05:07:14;24.40;66.50
14142;DHT22;7151;52.246;4.820;2023-06-19T05:09:43;24.40;66.50
14142;DHT22;7151;52.246;4.820;2023-06-19T05:12:09;24.40;66.50
14142;DHT22;7151;52.246;4.820;2023-06-19T05:14:35;24.40;66.60
14142;DHT22;7151;52.246;4.820;2023-06-19T05:17:01;24.40;66.70
14142;DHT22;7151;52.246;4.820;2023-06-19T05:19:26;24.40;66.90
14142;DHT22;7151;52.246;4.820;2023-06-19T05:21:52;24.40;67.00
14142;DHT22;7151;52.246;4.820;2023-06-19T05:24:17;24.40;66.90
14142;DHT22;7151;52.246;4.820;2023-06-19T05:26:43;24.40;66.90
14142;DHT22;7151;52.246;4.820;2023-06-19T05:29:08;24.30;66.80
14142;DHT22;7151;52.246;4.820;2023-06-19T05:31:34;24.30;66.70
14142;DHT22;7151;52.246;4.820;2023-06-19T05:34:00;24.30;66.60
14142;DHT22;7151;52.246;4.820;2023-06-19T05:36:26;24.30;66.60
14142;DHT22;7151;52.246;4.820;2023-06-19T05:38:51;24.30;66.70
14142;DHT22;7151;52.246;4.820;2023-06-19T05:41:17;24.30;66.80
14142;DHT22;7151;52.246;4.820;2023-06-19T05:43:43;24.30;66.80
14142;DHT22;7151;52.246;4.820;2023-06-19T05:46:08;24.30;66.70
14142;DHT22;7151;52.246;4.820;2023-06-19T05:48:34;24.20;66.60
14142;DHT22;7151;52.246;4.820;2023-06-19T05:51:00;24.20;66.70
14142;DHT22;7151;52.246;4.820;2023-06-19T05:53:25;24.20;66.70
14142;DHT22;7151;52.246;4.820;2023-06-19T05:55:51;24.20;66.70
14142;DHT22;7151;52.246;4.820;2023-06-19T05:58:16;24.20;66.60
14142;DHT22;7151;52.246;4.820;2023-06-19T06:00:45;24.20;66.50
14142;DHT22;7151;52.246;4.820;2023-06-19T06:03:11;24.20;66.50
14142;DHT22;7151;52.246;4.820;2023-06-19T06:05:38;24.20;66.50
14142;DHT22;7151;52.246;4.820;2023-06-19T06:08:04;24.20;66.60
14142;DHT22;7151;52.246;4.820;2023-06-19T06:10:30;24.10;66.50
14142;DHT22;7151;52.246;4.820;2023-06-19T06:12:55;24.10;66.50
14142;DHT22;7151;52.246;4.820;2023-06-19T06:15:21;24.10;66.50
14142;DHT22;7151;52.246;4.820;2023-06-19T06:17:47;24.10;67.00
14142;DHT22;7151;52.246;4.820;2023-06-19T06:20:12;24.00;66.40
14142;DHT22;7151;52.246;4.820;2023-06-19T06:22:42;24.10;66.60
14142;DHT22;7151;52.246;4.820;2023-06-19T06:25:08;24.00;66.80
14142;DHT22;7151;52.246;4.820;2023-06-19T06:27:35;24.00;66.80
14142;DHT22;7151;52.246;4.820;2023-06-19T06:30:02;24.00;66.80
14142;DHT22;7151;52.246;4.820;2023-06-19T06:32:27;24.00;66.70
14142;DHT22;7151;52.246;4.820;2023-06-19T06:34:54;24.00;66.50
14142;DHT22;7151;52.246;4.820;2023-06-19T06:37:20;24.00;66.50
14142;DHT22;7151;52.246;4.820;2023-06-19T06:39:48;24.00;66.30
14142;DHT22;7151;52.246;4.820;2023-06-19T06:42:15;24.00;66.20
14142;DHT22;7151;52.246;4.820;2023-06-19T06:44:40;23.90;65.90
14142;DHT22;7151;52.246;4.820;2023-06-19T06:47:06;23.90;65.90
14142;DHT22;7151;52.246;4.820;2023-06-19T06:49:31;23.90;65.80
14142;DHT22;7151;52.246;4.820;2023-06-19T06:51:57;23.80;65.60
14142;DHT22;7151;52.246;4.820;2023-06-19T06:54:23;23.80;65.60
14142;DHT22;7151;52.246;4.820;2023-06-19T06:56:48;23.80;65.60
14142;DHT22;7151;52.246;4.820;2023-06-19T06:59:14;23.80;65.80
14142;DHT22;7151;52.246;4.820;2023-06-19T07:01:41;23.80;65.90
14142;DHT22;7151;52.246;4.820;2023-06-19T07:04:07;23.70;65.80
14142;DHT22;7151;52.246;4.820;2023-06-19T07:06:33;23.70;65.80
14142;DHT22;7151;52.246;4.820;2023-06-19T07:08:58;23.70;65.80
14142;DHT22;7151;52.246;4.820;2023-06-19T07:11:24;23.70;65.80
14142;DHT22;7151;52.246;4.820;2023-06-19T07:13:50;23.70;65.80
14142;DHT22;7151;52.246;4.820;2023-06-19T07:16:15;23.70;65.80
14142;DHT22;7151;52.246;4.820;2023-06-19T07:18:41;23.70;65.90
14142;DHT22;7151;52.246;4.820;2023-06-19T07:21:12;23.70;66.70
14142;DHT22;7151;52.246;4.820;2023-06-19T07:23:42;23.70;66.10
14142;DHT22;7151;52.246;4.820;2023-06-19T07:26:09;23.70;66.00
14142;DHT22;7151;52.246;4.820;2023-06-19T07:28:35;23.70;66.00
14142;DHT22;7151;52.246;4.820;2023-06-19T07:31:02;23.70;66.10
14142;DHT22;7151;52.246;4.820;2023-06-19T07:33:28;23.70;66.20
14142;DHT22;7151;52.246;4.820;2023-06-19T07:35:55;23.70;66.10
14142;DHT22;7151;52.246;4.820;2023-06-19T07:38:21;23.70;65.90
14142;DHT22;7151;52.246;4.820;2023-06-19T07:40:47;23.70;65.90
14142;DHT22;7151;52.246;4.820;2023-06-19T07:43:12;23.70;65.80
14142;DHT22;7151;52.246;4.820;2023-06-19T07:45:38;23.80;65.90
14142;DHT22;7151;52.246;4.820;2023-06-19T07:48:03;23.80;65.90
14142;DHT22;7151;52.246;4.820;2023-06-19T07:50:29;23.80;65.90
14142;DHT22;7151;52.246;4.820;2023-06-19T07:52:55;23.80;65.80
14142;DHT22;7151;52.246;4.820;2023-06-19T07:55:21;23.80;65.70
14142;DHT22;7151;52.246;4.820;2023-06-19T07:57:46;23.90;65.80
14142;DHT22;7151;52.246;4.820;2023-06-19T08:00:12;23.90;65.80
14142;DHT22;7151;52.246;4.820;2023-06-19T08:02:39;23.90;65.60
14142;DHT22;7151;52.246;4.820;2023-06-19T08:05:07;23.90;65.60
14142;DHT22;7151;52.246;4.820;2023-06-19T08:07:33;23.90;65.60
14142;DHT22;7151;52.246;4.820;2023-06-19T08:09:59;23.90;65.60
14142;DHT22;7151;52.246;4.820;2023-06-19T08:12:24;24.00;65.90
14142;DHT22;7151;52.246;4.820;2023-06-19T08:14:50;24.00;65.90
14142;DHT22;7151;52.246;4.820;2023-06-19T08:17:16;24.00;65.60
14142;DHT22;7151;52.246;4.820;2023-06-19T08:19:41;24.00;65.60
14142;DHT22;7151;52.246;4.820;2023-06-19T08:22:08;24.10;65.60
14142;DHT22;7151;52.246;4.820;2023-06-19T08:24:34;24.10;65.50
14142;DHT22;7151;52.246;4.820;2023-06-19T08:27:02;24.10;65.30
14142;DHT22;7151;52.246;4.820;2023-06-19T08:29:27;24.10;65.20
14142;DHT22;7151;52.246;4.820;2023-06-19T08:31:53;24.10;65.20
14142;DHT22;7151;52.246;4.820;2023-06-19T08:34:18;24.10;65.20
14142;DHT22;7151;52.246;4.820;2023-06-19T08:36:44;24.10;65.20
14142;DHT22;7151;52.246;4.820;2023-06-19T08:39:10;24.10;65.20
14142;DHT22;7151;52.246;4.820;2023-06-19T08:41:37;24.10;65.30
14142;DHT22;7151;52.246;4.820;2023-06-19T08:44:03;24.20;65.20
14142;DHT22;7151;52.246;4.820;2023-06-19T08:46:29;24.20;65.10
14142;DHT22;7151;52.246;4.820;2023-06-19T08:48:55;24.20;65.20
14142;DHT22;7151;52.246;4.820;2023-06-19T08:51:21;24.20;65.20
14142;DHT22;7151;52.246;4.820;2023-06-19T08:54:09;24.20;65.30
14142;DHT22;7151;52.246;4.820;2023-06-19T08:56:35;24.20;66.10
14142;DHT22;7151;52.246;4.820;2023-06-19T09:01:38;24.30;65.50
14142;DHT22;7151;52.246;4.820;2023-06-19T09:04:11;24.30;65.30
14142;DHT22;7151;52.246;4.820;2023-06-19T09:06:55;24.30;65.50
14142;DHT22;7151;52.246;4.820;2023-06-19T09:09:23;24.30;65.40
14142;DHT22;7151;52.246;4.820;2023-06-19T09:12:08;24.30;65.20
14142;DHT22;7151;52.246;4.820;2023-06-19T09:14:39;24.30;65.30
14142;DHT22;7151;52.246;4.820;2023-06-19T09:17:07;24.40;65.40
14142;DHT22;7151;52.246;4.820;2023-06-19T09:19:33;24.40;65.20
14142;DHT22;7151;52.246;4.820;2023-06-19T09:22:04;24.40;65.30
14142;DHT22;7151;52.246;4.820;2023-06-19T09:24:38;24.40;65.30
14142;DHT22;7151;52.246;4.820;2023-06-19T09:27:18;24.50;65.10
14142;DHT22;7151;52.246;4.820;2023-06-19T09:29:46;24.60;65.30
14142;DHT22;7151;52.246;4.820;2023-06-19T09:32:20;24.60;65.10
14142;DHT22;7151;52.246;4.820;2023-06-19T09:34:46;24.70;65.00
14142;DHT22;7151;52.246;4.820;2023-06-19T09:37:12;24.70;64.70
14142;DHT22;7151;52.246;4.820;2023-06-19T09:39:39;24.80;64.50
14142;DHT22;7151;52.246;4.820;2023-06-19T09:42:09;24.80;64.30
14142;DHT22;7151;52.246;4.820;2023-06-19T09:44:42;24.80;64.30
14142;DHT22;7151;52.246;4.820;2023-06-19T09:47:19;24.80;64.20
14142;DHT22;7151;52.246;4.820;2023-06-19T09:49:55;24.90;64.10
14142;DHT22;7151;52.246;4.820;2023-06-19T09:52:21;24.90;64.10
14142;DHT22;7151;52.246;4.820;2023-06-19T09:54:52;24.90;64.10
14142;DHT22;7151;52.246;4.820;2023-06-19T09:57:18;25.00;63.90
14142;DHT22;7151;52.246;4.820;2023-06-19T09:59:52;25.00;63.70
14142;DHT22;7151;52.246;4.820;2023-06-19T10:02:19;25.00;63.40
14142;DHT22;7151;52.246;4.820;2023-06-19T10:04:54;25.00;63.30
14142;DHT22;7151;52.246;4.820;2023-06-19T10:07:32;25.00;63.40
14142;DHT22;7151;52.246;4.820;2023-06-19T10:10:12;25.00;63.60
14142;DHT22;7151;52.246;4.820;2023-06-19T10:12:47;25.10;63.80
14142;DHT22;7151;52.246;4.820;2023-06-19T10:15:17;25.20;63.80
14142;DHT22;7151;52.246;4.820;2023-06-19T10:17:47;25.20;63.60
14142;DHT22;7151;52.246;4.820;2023-06-19T10:23:24;25.40;63.40
14142;DHT22;7151;52.246;4.820;2023-06-19T10:26:00;25.50;63.00
14142;DHT22;7151;52.246;4.820;2023-06-19T10:28:27;25.50;62.70
14142;DHT22;7151;52.246;4.820;2023-06-19T10:30:58;25.60;62.50
14142;DHT22;7151;52.246;4.820;2023-06-19T10:33:27;25.60;62.10
14142;DHT22;7151;52.246;4.820;2023-06-19T10:35:53;25.60;61.90
14142;DHT22;7151;52.246;4.820;2023-06-19T10:38:19;25.70;61.90
14142;DHT22;7151;52.246;4.820;2023-06-19T10:40:45;25.70;62.50
14142;DHT22;7151;52.246;4.820;2023-06-19T10:43:12;25.80;61.60
14142;DHT22;7151;52.246;4.820;2023-06-19T10:45:38;25.80;61.20
14142;DHT22;7151;52.246;4.820;2023-06-19T10:48:04;25.90;60.90
14142;DHT22;7151;52.246;4.820;2023-06-19T10:50:34;25.90;60.80
14142;DHT22;7151;52.246;4.820;2023-06-19T10:53:01;26.00;60.60
14142;DHT22;7151;52.246;4.820;2023-06-19T10:55:26;26.00;60.70
14142;DHT22;7151;52.246;4.820;2023-06-19T10:57:52;26.10;60.50
14142;DHT22;7151;52.246;4.820;2023-06-19T11:00:29;26.10;60.30
14142;DHT22;7151;52.246;4.820;2023-06-19T11:02:56;26.20;60.20
14142;DHT22;7151;52.246;4.820;2023-06-19T11:05:26;26.20;60.00
14142;DHT22;7151;52.246;4.820;2023-06-19T11:07:57;26.20;59.60
14142;DHT22;7151;52.246;4.820;2023-06-19T11:10:24;26.20;59.60
14142;DHT22;7151;52.246;4.820;2023-06-19T11:12:56;26.30;59.80
14142;DHT22;7151;52.246;4.820;2023-06-19T11:15:33;26.30;59.80
14142;DHT22;7151;52.246;4.820;2023-06-19T11:18:00;26.40;59.60
14142;DHT22;7151;52.246;4.820;2023-06-19T11:20:26;26.40;59.80
14142;DHT22;7151;52.246;4.820;2023-06-19T11:22:57;26.50;59.80
14142;DHT22;7151;52.246;4.820;2023-06-19T11:25:23;26.50;59.30
14142;DHT22;7151;52.246;4.820;2023-06-19T11:27:49;26.60;59.50
14142;DHT22;7151;52.246;4.820;2023-06-19T11:30:17;26.70;59.50
14142;DHT22;7151;52.246;4.820;2023-06-19T11:32:46;26.70;59.00
14142;DHT22;7151;52.246;4.820;2023-06-19T11:35:15;26.70;58.90
14142;DHT22;7151;52.246;4.820;2023-06-19T11:37:42;26.80;58.80
14142;DHT22;7151;52.246;4.820;2023-06-19T11:40:09;26.90;58.70
14142;DHT22;7151;52.246;4.820;2023-06-19T11:42:51;27.00;58.40
14142;DHT22;7151;52.246;4.820;2023-06-19T11:45:17;27.00;58.20
14142;DHT22;7151;52.246;4.820;2023-06-19T11:47:44;27.10;58.20
14142;DHT22;7151;52.246;4.820;2023-06-19T11:50:10;27.20;58.10
14142;DHT22;7151;52.246;4.820;2023-06-19T11:52:36;27.20;58.00
14142;DHT22;7151;52.246;4.820;2023-06-19T11:55:02;27.30;57.80
14142;DHT22;7151;52.246;4.820;2023-06-19T11:57:28;27.30;57.60
14142;DHT22;7151;52.246;4.820;2023-06-19T11:59:53;27.40;57.50
14142;DHT22;7151;52.246;4.820;2023-06-19T12:02:19;27.40;57.40
14142;DHT22;7151;52.246;4.820;2023-06-19T12:04:45;27.50;57.20
14142;DHT22;7151;52.246;4.820;2023-06-19T12:07:10;27.60;57.20
14142;DHT22;7151;52.246;4.820;2023-06-19T12:09:36;27.60;57.20
14142;DHT22;7151;52.246;4.820;2023-06-19T12:12:04;27.70;57.00
14142;DHT22;7151;52.246;4.820;2023-06-19T12:14:30;27.80;56.70
14142;DHT22;7151;52.246;4.820;2023-06-19T12:16:56;27.80;56.50
14142;DHT22;7151;52.246;4.820;2023-06-19T12:19:21;27.80;56.50
14142;DHT22;7151;52.246;4.820;2023-06-19T12:21:47;27.90;56.50
14142;DHT22;7151;52.246;4.820;2023-06-19T12:24:13;27.90;56.10
14142;DHT22;7151;52.246;4.820;2023-06-19T12:26:38;28.00;56.30
14142;DHT22;7151;52.246;4.820;2023-06-19T12:29:06;28.00;56.10
14142;DHT22;7151;52.246;4.820;2023-06-19T12:31:35;28.10;56.00
14142;DHT22;7151;52.246;4.820;2023-06-19T12:34:02;28.10;56.00
14142;DHT22;7151;52.246;4.820;2023-06-19T12:36:28;28.10;56.00
14142;DHT22;7151;52.246;4.820;2023-06-19T12:38:54;28.10;56.10
14142;DHT22;7151;52.246;4.820;2023-06-19T12:41:20;28.20;56.10
14142;DHT22;7151;52.246;4.820;2023-06-19T12:43:46;28.20;55.90
14142;DHT22;7151;52.246;4.820;2023-06-19T12:46:12;28.30;55.90
14142;DHT22;7151;52.246;4.820;2023-06-19T12:48:38;28.30;55.90
14142;DHT22;7151;52.246;4.820;2023-06-19T12:51:03;28.40;55.70
14142;DHT22;7151;52.246;4.820;2023-06-19T12:53:29;28.40;55.50
14142;DHT22;7151;52.246;4.820;2023-06-19T12:55:59;28.50;55.50
14142;DHT22;7151;52.246;4.820;2023-06-19T12:58:24;28.50;55.50
14142;DHT22;7151;52.246;4.820;2023-06-19T13:00:50;28.50;55.50
14142;DHT22;7151;52.246;4.820;2023-06-19T13:03:16;28.60;55.40
14142;DHT22;7151;52.246;4.820;2023-06-19T13:05:41;28.70;55.80
14142;DHT22;7151;52.246;4.820;2023-06-19T13:08:07;28.70;55.00
14142;DHT22;7151;52.246;4.820;2023-06-19T13:10:33;28.70;54.90
14142;DHT22;7151;52.246;4.820;2023-06-19T13:12:58;28.80;54.90
14142;DHT22;7151;52.246;4.820;2023-06-19T13:15:24;28.90;54.80
14142;DHT22;7151;52.246;4.820;2023-06-19T13:17:50;28.90;54.80
14142;DHT22;7151;52.246;4.820;2023-06-19T13:20:16;29.00;54.50
14142;DHT22;7151;52.246;4.820;2023-06-19T13:22:41;29.10;54.30
14142;DHT22;7151;52.246;4.820;2023-06-19T13:25:07;29.10;54.60
14142;DHT22;7151;52.246;4.820;2023-06-19T13:27:33;29.20;53.90
14142;DHT22;7151;52.246;4.820;2023-06-19T13:30:00;29.30;53.80
14142;DHT22;7151;52.246;4.820;2023-06-19T13:32:26;29.30;53.60
14142;DHT22;7151;52.246;4.820;2023-06-19T13:34:51;29.40;53.50
14142;DHT22;7151;52.246;4.820;2023-06-19T13:37:18;29.50;53.40
14142;DHT22;7151;52.246;4.820;2023-06-19T13:39:44;29.60;53.30
14142;DHT22;7151;52.246;4.820;2023-06-19T13:42:09;29.70;53.20
14142;DHT22;7151;52.246;4.820;2023-06-19T13:44:36;29.70;53.00
14142;DHT22;7151;52.246;4.820;2023-06-19T13:47:02;29.80;52.80
14142;DHT22;7151;52.246;4.820;2023-06-19T13:49:27;29.90;52.70
14142;DHT22;7151;52.246;4.820;2023-06-19T13:51:53;29.90;52.60
14142;DHT22;7151;52.246;4.820;2023-06-19T13:54:19;30.00;52.50
14142;DHT22;7151;52.246;4.820;2023-06-19T13:56:46;30.00;52.40
14142;DHT22;7151;52.246;4.820;2023-06-19T13:59:12;30.10;52.50
14142;DHT22;7151;52.246;4.820;2023-06-19T14:01:38;30.10;52.30
14142;DHT22;7151;52.246;4.820;2023-06-19T14:04:04;30.10;52.20
14142;DHT22;7151;52.246;4.820;2023-06-19T14:06:30;30.20;52.40
14142;DHT22;7151;52.246;4.820;2023-06-19T14:08:55;30.20;52.40
14142;DHT22;7151;52.246;4.820;2023-06-19T14:11:21;30.30;52.40
14142;DHT22;7151;52.246;4.820;2023-06-19T14:13:47;30.40;52.40
14142;DHT22;7151;52.246;4.820;2023-06-19T14:16:12;30.50;52.10
14142;DHT22;7151;52.246;4.820;2023-06-19T14:18:38;30.60;52.00
14142;DHT22;7151;52.246;4.820;2023-06-19T14:21:04;30.70;51.60
14142;DHT22;7151;52.246;4.820;2023-06-19T14:23:29;30.70;51.10
14142;DHT22;7151;52.246;4.820;2023-06-19T14:25:55;30.80;51.00
14142;DHT22;7151;52.246;4.820;2023-06-19T14:28:21;30.90;50.50
14142;DHT22;7151;52.246;4.820;2023-06-19T14:30:47;30.90;50.10
14142;DHT22;7151;52.246;4.820;2023-06-19T14:33:12;31.00;49.90
14142;DHT22;7151;52.246;4.820;2023-06-19T14:35:43;31.10;49.70
14142;DHT22;7151;52.246;4.820;2023-06-19T14:38:14;31.10;49.10
14142;DHT22;7151;52.246;4.820;2023-06-19T14:40:41;31.20;49.20
14142;DHT22;7151;52.246;4.820;2023-06-19T14:43:06;31.20;49.00
14142;DHT22;7151;52.246;4.820;2023-06-19T14:45:34;31.30;49.30
14142;DHT22;7151;52.246;4.820;2023-06-19T14:47:59;31.30;48.50
14142;DHT22;7151;52.246;4.820;2023-06-19T14:50:25;31.40;48.30
14142;DHT22;7151;52.246;4.820;2023-06-19T14:52:51;31.40;48.00
14142;DHT22;7151;52.246;4.820;2023-06-19T14:55:16;31.50;47.90
14142;DHT22;7151;52.246;4.820;2023-06-19T14:57:42;31.50;47.70
14142;DHT22;7151;52.246;4.820;2023-06-19T15:00:08;31.60;47.50
14142;DHT22;7151;52.246;4.820;2023-06-19T15:02:34;31.70;46.90
14142;DHT22;7151;52.246;4.820;2023-06-19T15:05:00;31.70;46.60
14142;DHT22;7151;52.246;4.820;2023-06-19T15:07:25;31.80;46.60
14142;DHT22;7151;52.246;4.820;2023-06-19T15:09:51;31.80;46.50
14142;DHT22;7151;52.246;4.820;2023-06-19T15:12:17;31.90;46.40
14142;DHT22;7151;52.246;4.820;2023-06-19T15:14:42;31.90;46.10
14142;DHT22;7151;52.246;4.820;2023-06-19T15:17:08;32.00;45.70
14142;DHT22;7151;52.246;4.820;2023-06-19T15:19:34;32.10;45.70
14142;DHT22;7151;52.246;4.820;2023-06-19T15:21:59;32.20;45.60
14142;DHT22;7151;52.246;4.820;2023-06-19T15:24:25;32.20;45.20
14142;DHT22;7151;52.246;4.820;2023-06-19T15:26:50;32.30;45.30
14142;DHT22;7151;52.246;4.820;2023-06-19T15:29:16;32.30;45.30
14142;DHT22;7151;52.246;4.820;2023-06-19T15:31:42;32.40;45.00
14142;DHT22;7151;52.246;4.820;2023-06-19T15:34:07;32.40;44.80
14142;DHT22;7151;52.246;4.820;2023-06-19T15:36:33;32.40;44.50
14142;DHT22;7151;52.246;4.820;2023-06-19T15:38:58;32.50;44.30
14142;DHT22;7151;52.246;4.820;2023-06-19T15:41:24;32.50;44.10
14142;DHT22;7151;52.246;4.820;2023-06-19T15:43:50;32.50;44.10
14142;DHT22;7151;52.246;4.820;2023-06-19T15:46:15;32.50;43.90
14142;DHT22;7151;52.246;4.820;2023-06-19T15:48:41;32.50;43.90